Terminal Aerodrome Forecast
Issued by NWS

Home | Current Version | Previous Version | Text Only | Print | Product List | Glossary On
Versions: 1 2 3 4 5 6 7 8 9 10 11 12 13 14 15 16 17 18 19 20 21 22 23 24 25 26
000
FTUS46 KHNX 252222 AAD
TAFVIS
TAF AMD
KVIS 252222Z 2522/2618 VRB02KT 4SM HZ OVC008
     FM260400 VRB03KT 1/4SM FG OVC003
     FM260800 VRB02KT 0SM FG OVC002=

USA.gov is the U.S. government's official web portal to all federal, state and local government web resources and services.